KLRU/LRU METAR and TAF weather

Enter ICAO airport designator
Station Type Date Time Source
KLRU METAR 2020/09/19 05:15 UTC NOAA

KLRU 190515Z AUTO 12007KT 10SM CLR 20/06 A3027 RMK AO2 T01980062


Station Type Date Time Source
KLRU Decoded METAR 2020/09/19 05:15 UTC NOAA

Las Cruces, Las Cruces International Airport, NM, United States (KLRU) 32-17-22N 106-55-19W
Sep 19, 2020 - 01:15 AM EDT / 2020.09.19 0515 UTC
Wind: from the ESE (120 degrees) at 8 MPH (7 KT):0
Visibility: 10 mile(s):0
Sky conditions: clear
Temperature: 67.6 F (19.8 C)
Dew Point: 43.2 F (6.2 C)
Relative Humidity: 41%
Pressure (altimeter): 30.27 in. Hg (1025 hPa)
ob: KLRU 190515Z AUTO 12007KT 10SM CLR 20/06 A3027 RMK AO2 T01980062
cycle: 5

Station Type Date Time Source
KLRU TAF 2020/09/18 18:22 UTC NOAA

TAF KLRU 181720Z 1818/1918 11008KT P6SM SCT090
FM190300 13005KT P6SM SKC

Example: see airport list